sensor_id;sensor_type;location;lat;lon;timestamp;temperature;humidity
19206;DHT22;59358;52.134;5.596;2023-10-08T00:00:24;18.30;99.90
19206;DHT22;59358;52.134;5.596;2023-10-08T00:03:09;18.20;99.90
19206;DHT22;59358;52.134;5.596;2023-10-08T00:05:37;18.20;99.90
19206;DHT22;59358;52.134;5.596;2023-10-08T00:08:05;18.20;99.90
19206;DHT22;59358;52.134;5.596;2023-10-08T00:10:34;18.20;99.90
19206;DHT22;59358;52.134;5.596;2023-10-08T00:13:03;18.20;99.90
19206;DHT22;59358;52.134;5.596;2023-10-08T00:15:33;18.20;99.90
19206;DHT22;59358;52.134;5.596;2023-10-08T00:18:02;18.30;99.90
19206;DHT22;59358;52.134;5.596;2023-10-08T00:20:31;18.30;99.90
19206;DHT22;59358;52.134;5.596;2023-10-08T00:23:02;18.30;99.90
19206;DHT22;59358;52.134;5.596;2023-10-08T00:25:33;18.30;99.90
19206;DHT22;59358;52.134;5.596;2023-10-08T00:28:07;18.20;99.90
19206;DHT22;59358;52.134;5.596;2023-10-08T00:30:37;18.20;99.90
19206;DHT22;59358;52.134;5.596;2023-10-08T00:33:04;18.20;99.90
19206;DHT22;59358;52.134;5.596;2023-10-08T00:35:31;18.20;99.90
19206;DHT22;59358;52.134;5.596;2023-10-08T00:37:58;18.20;99.90
19206;DHT22;59358;52.134;5.596;2023-10-08T00:40:36;18.20;99.90
19206;DHT22;59358;52.134;5.596;2023-10-08T00:43:04;18.20;99.90
19206;DHT22;59358;52.134;5.596;2023-10-08T00:45:36;18.20;99.90
19206;DHT22;59358;52.134;5.596;2023-10-08T00:48:09;18.30;99.90
19206;DHT22;59358;52.134;5.596;2023-10-08T00:50:37;18.20;99.90
19206;DHT22;59358;52.134;5.596;2023-10-08T00:53:09;18.20;99.90
19206;DHT22;59358;52.134;5.596;2023-10-08T00:55:44;18.20;99.90
19206;DHT22;59358;52.134;5.596;2023-10-08T00:58:19;18.20;99.90
19206;DHT22;59358;52.134;5.596;2023-10-08T01:00:50;18.20;99.90
19206;DHT22;59358;52.134;5.596;2023-10-08T01:03:25;18.20;99.90
19206;DHT22;59358;52.134;5.596;2023-10-08T01:05:53;18.20;99.90
19206;DHT22;59358;52.134;5.596;2023-10-08T01:08:20;18.20;99.90
19206;DHT22;59358;52.134;5.596;2023-10-08T01:11:16;18.10;99.90
19206;DHT22;59358;52.134;5.596;2023-10-08T01:13:43;18.10;99.90
19206;DHT22;59358;52.134;5.596;2023-10-08T01:16:12;18.10;99.90
19206;DHT22;59358;52.134;5.596;2023-10-08T01:18:39;18.10;99.90
19206;DHT22;59358;52.134;5.596;2023-10-08T01:21:16;17.90;99.90
19206;DHT22;59358;52.134;5.596;2023-10-08T01:23:58;17.90;99.90
19206;DHT22;59358;52.134;5.596;2023-10-08T01:26:28;17.80;99.90
19206;DHT22;59358;52.134;5.596;2023-10-08T01:28:57;17.80;99.90
19206;DHT22;59358;52.134;5.596;2023-10-08T01:31:28;17.80;99.90
19206;DHT22;59358;52.134;5.596;2023-10-08T01:33:54;17.80;99.90
19206;DHT22;59358;52.134;5.596;2023-10-08T01:36:22;17.80;99.90
19206;DHT22;59358;52.134;5.596;2023-10-08T01:38:51;17.80;99.90
19206;DHT22;59358;52.134;5.596;2023-10-08T01:41:21;17.80;99.90
19206;DHT22;59358;52.134;5.596;2023-10-08T01:43:55;17.70;99.90
19206;DHT22;59358;52.134;5.596;2023-10-08T01:46:24;17.80;99.90
19206;DHT22;59358;52.134;5.596;2023-10-08T01:48:52;17.80;99.90
19206;DHT22;59358;52.134;5.596;2023-10-08T01:51:29;17.80;99.90
19206;DHT22;59358;52.134;5.596;2023-10-08T01:54:10;17.80;99.90
19206;DHT22;59358;52.134;5.596;2023-10-08T01:56:40;17.70;99.90
19206;DHT22;59358;52.134;5.596;2023-10-08T01:59:08;17.80;99.90
19206;DHT22;59358;52.134;5.596;2023-10-08T02:01:35;17.70;99.90
19206;DHT22;59358;52.134;5.596;2023-10-08T02:04:04;17.70;99.90
19206;DHT22;59358;52.134;5.596;2023-10-08T02:06:32;17.70;99.90
19206;DHT22;59358;52.134;5.596;2023-10-08T02:08:59;17.70;99.90
19206;DHT22;59358;52.134;5.596;2023-10-08T02:11:31;17.70;99.90
19206;DHT22;59358;52.134;5.596;2023-10-08T02:13:59;17.70;99.90
19206;DHT22;59358;52.134;5.596;2023-10-08T02:16:27;17.70;99.90
19206;DHT22;59358;52.134;5.596;2023-10-08T02:18:54;17.70;99.90
19206;DHT22;59358;52.134;5.596;2023-10-08T02:21:21;17.60;99.90
19206;DHT22;59358;52.134;5.596;2023-10-08T02:23:47;17.60;99.90
19206;DHT22;59358;52.134;5.596;2023-10-08T02:26:14;17.60;99.90
19206;DHT22;59358;52.134;5.596;2023-10-08T02:28:41;17.70;99.90
19206;DHT22;59358;52.134;5.596;2023-10-08T02:31:09;17.70;99.90
19206;DHT22;59358;52.134;5.596;2023-10-08T02:33:36;17.80;99.90
19206;DHT22;59358;52.134;5.596;2023-10-08T02:36:04;17.80;99.90
19206;DHT22;59358;52.134;5.596;2023-10-08T02:38:31;17.70;99.90
19206;DHT22;59358;52.134;5.596;2023-10-08T02:41:03;17.70;99.90
19206;DHT22;59358;52.134;5.596;2023-10-08T02:43:31;17.70;99.90
19206;DHT22;59358;52.134;5.596;2023-10-08T02:46:00;17.70;99.90
19206;DHT22;59358;52.134;5.596;2023-10-08T02:48:28;17.70;99.90
19206;DHT22;59358;52.134;5.596;2023-10-08T02:50:55;17.60;99.90
19206;DHT22;59358;52.134;5.596;2023-10-08T02:53:33;17.60;99.90
19206;DHT22;59358;52.134;5.596;2023-10-08T02:55:59;17.60;99.90
19206;DHT22;59358;52.134;5.596;2023-10-08T02:58:27;17.60;99.90
19206;DHT22;59358;52.134;5.596;2023-10-08T03:00:56;17.50;99.90
19206;DHT22;59358;52.134;5.596;2023-10-08T03:03:23;17.50;99.90
19206;DHT22;59358;52.134;5.596;2023-10-08T03:05:52;17.50;99.90
19206;DHT22;59358;52.134;5.596;2023-10-08T03:08:22;17.50;99.90
19206;DHT22;59358;52.134;5.596;2023-10-08T03:10:50;17.50;99.90
19206;DHT22;59358;52.134;5.596;2023-10-08T03:13:21;17.50;99.90
19206;DHT22;59358;52.134;5.596;2023-10-08T03:15:48;17.50;99.90
19206;DHT22;59358;52.134;5.596;2023-10-08T03:18:33;17.50;99.90
19206;DHT22;59358;52.134;5.596;2023-10-08T03:21:04;17.50;99.90
19206;DHT22;59358;52.134;5.596;2023-10-08T03:23:32;17.50;99.90
19206;DHT22;59358;52.134;5.596;2023-10-08T03:26:02;17.50;99.90
19206;DHT22;59358;52.134;5.596;2023-10-08T03:28:36;17.50;99.90
19206;DHT22;59358;52.134;5.596;2023-10-08T03:31:03;17.50;99.90
19206;DHT22;59358;52.134;5.596;2023-10-08T03:33:31;17.50;99.90
19206;DHT22;59358;52.134;5.596;2023-10-08T03:36:03;17.50;99.90
19206;DHT22;59358;52.134;5.596;2023-10-08T03:38:40;17.50;99.90
19206;DHT22;59358;52.134;5.596;2023-10-08T03:41:17;17.50;99.90
19206;DHT22;59358;52.134;5.596;2023-10-08T03:43:46;17.50;99.90
19206;DHT22;59358;52.134;5.596;2023-10-08T03:46:23;17.50;99.90
19206;DHT22;59358;52.134;5.596;2023-10-08T03:48:51;17.50;99.90
19206;DHT22;59358;52.134;5.596;2023-10-08T03:51:21;17.50;99.90
19206;DHT22;59358;52.134;5.596;2023-10-08T03:53:52;17.50;99.90
19206;DHT22;59358;52.134;5.596;2023-10-08T03:56:46;17.50;99.90
19206;DHT22;59358;52.134;5.596;2023-10-08T03:59:14;17.50;99.90
19206;DHT22;59358;52.134;5.596;2023-10-08T04:01:46;17.50;99.90
19206;DHT22;59358;52.134;5.596;2023-10-08T04:04:15;17.60;99.90
19206;DHT22;59358;52.134;5.596;2023-10-08T04:06:42;17.60;99.90
19206;DHT22;59358;52.134;5.596;2023-10-08T04:09:15;17.70;99.90
19206;DHT22;59358;52.134;5.596;2023-10-08T04:11:52;17.70;99.90
19206;DHT22;59358;52.134;5.596;2023-10-08T04:14:18;17.70;99.90
19206;DHT22;59358;52.134;5.596;2023-10-08T04:16:45;17.60;99.90
19206;DHT22;59358;52.134;5.596;2023-10-08T04:19:12;17.50;99.90
19206;DHT22;59358;52.134;5.596;2023-10-08T04:21:43;17.40;99.90
19206;DHT22;59358;52.134;5.596;2023-10-08T04:24:11;17.20;99.90
19206;DHT22;59358;52.134;5.596;2023-10-08T04:26:40;17.10;99.90
19206;DHT22;59358;52.134;5.596;2023-10-08T04:29:09;16.90;99.90
19206;DHT22;59358;52.134;5.596;2023-10-08T04:31:42;16.80;99.90
19206;DHT22;59358;52.134;5.596;2023-10-08T04:34:12;16.60;99.90
19206;DHT22;59358;52.134;5.596;2023-10-08T04:36:42;16.40;99.90
19206;DHT22;59358;52.134;5.596;2023-10-08T04:39:10;16.20;99.90
19206;DHT22;59358;52.134;5.596;2023-10-08T04:41:41;16.00;99.90
19206;DHT22;59358;52.134;5.596;2023-10-08T04:44:11;15.90;99.90
19206;DHT22;59358;52.134;5.596;2023-10-08T04:46:40;15.80;99.90
19206;DHT22;59358;52.134;5.596;2023-10-08T04:49:13;15.60;99.90
19206;DHT22;59358;52.134;5.596;2023-10-08T04:51:54;15.40;99.90
19206;DHT22;59358;52.134;5.596;2023-10-08T04:54:24;15.30;99.90
19206;DHT22;59358;52.134;5.596;2023-10-08T04:56:56;15.20;99.90
19206;DHT22;59358;52.134;5.596;2023-10-08T04:59:25;15.20;99.90
19206;DHT22;59358;52.134;5.596;2023-10-08T05:01:59;15.30;99.90
19206;DHT22;59358;52.134;5.596;2023-10-08T05:04:47;15.20;99.90
19206;DHT22;59358;52.134;5.596;2023-10-08T05:07:33;15.10;99.90
19206;DHT22;59358;52.134;5.596;2023-10-08T05:10:19;15.10;99.90
19206;DHT22;59358;52.134;5.596;2023-10-08T05:13:11;15.20;99.90
19206;DHT22;59358;52.134;5.596;2023-10-08T05:15:57;15.10;99.90
19206;DHT22;59358;52.134;5.596;2023-10-08T05:18:45;15.00;99.90
19206;DHT22;59358;52.134;5.596;2023-10-08T05:21:33;14.90;99.90
19206;DHT22;59358;52.134;5.596;2023-10-08T05:24:17;14.90;99.90
19206;DHT22;59358;52.134;5.596;2023-10-08T05:26:53;14.90;99.90
19206;DHT22;59358;52.134;5.596;2023-10-08T05:29:40;14.90;99.90
19206;DHT22;59358;52.134;5.596;2023-10-08T05:32:19;14.90;99.90
19206;DHT22;59358;52.134;5.596;2023-10-08T05:35:09;14.90;99.90
19206;DHT22;59358;52.134;5.596;2023-10-08T05:37:54;14.80;99.90
19206;DHT22;59358;52.134;5.596;2023-10-08T05:40:38;14.80;99.90
19206;DHT22;59358;52.134;5.596;2023-10-08T05:43:34;14.70;99.90
19206;DHT22;59358;52.134;5.596;2023-10-08T05:46:21;14.70;99.90
19206;DHT22;59358;52.134;5.596;2023-10-08T05:49:13;14.60;99.90
19206;DHT22;59358;52.134;5.596;2023-10-08T05:51:57;14.50;99.90
19206;DHT22;59358;52.134;5.596;2023-10-08T05:54:50;14.50;99.90
19206;DHT22;59358;52.134;5.596;2023-10-08T05:57:40;14.50;99.90
19206;DHT22;59358;52.134;5.596;2023-10-08T06:00:12;14.50;99.90
19206;DHT22;59358;52.134;5.596;2023-10-08T06:02:57;14.50;99.90
19206;DHT22;59358;52.134;5.596;2023-10-08T06:05:37;14.50;99.90
19206;DHT22;59358;52.134;5.596;2023-10-08T06:08:11;14.40;99.90
19206;DHT22;59358;52.134;5.596;2023-10-08T06:10:40;14.40;99.90
19206;DHT22;59358;52.134;5.596;2023-10-08T06:13:20;14.30;99.90
19206;DHT22;59358;52.134;5.596;2023-10-08T06:15:56;14.30;99.90
19206;DHT22;59358;52.134;5.596;2023-10-08T06:18:32;14.30;99.90
19206;DHT22;59358;52.134;5.596;2023-10-08T06:21:00;14.30;99.90
19206;DHT22;59358;52.134;5.596;2023-10-08T06:23:32;14.30;99.90
19206;DHT22;59358;52.134;5.596;2023-10-08T06:26:00;14.30;99.90
19206;DHT22;59358;52.134;5.596;2023-10-08T06:28:32;14.30;99.90
19206;DHT22;59358;52.134;5.596;2023-10-08T06:31:01;14.40;99.90
19206;DHT22;59358;52.134;5.596;2023-10-08T06:33:31;14.30;99.90
19206;DHT22;59358;52.134;5.596;2023-10-08T06:36:01;14.30;99.90
19206;DHT22;59358;52.134;5.596;2023-10-08T06:38:28;14.30;99.90
19206;DHT22;59358;52.134;5.596;2023-10-08T06:40:57;14.30;99.90
19206;DHT22;59358;52.134;5.596;2023-10-08T06:43:25;14.30;99.90
19206;DHT22;59358;52.134;5.596;2023-10-08T06:45:52;14.40;99.90
19206;DHT22;59358;52.134;5.596;2023-10-08T06:48:23;14.40;99.90
19206;DHT22;59358;52.134;5.596;2023-10-08T06:50:55;14.40;99.90
19206;DHT22;59358;52.134;5.596;2023-10-08T06:53:25;14.40;99.90
19206;DHT22;59358;52.134;5.596;2023-10-08T06:55:55;14.40;99.90
19206;DHT22;59358;52.134;5.596;2023-10-08T06:58:22;14.50;99.90
19206;DHT22;59358;52.134;5.596;2023-10-08T07:00:49;14.40;99.90
19206;DHT22;59358;52.134;5.596;2023-10-08T07:03:17;14.40;99.90
19206;DHT22;59358;52.134;5.596;2023-10-08T07:05:48;14.50;99.90
19206;DHT22;59358;52.134;5.596;2023-10-08T07:08:25;14.50;99.90
19206;DHT22;59358;52.134;5.596;2023-10-08T07:10:53;14.50;99.90
19206;DHT22;59358;52.134;5.596;2023-10-08T07:13:22;14.50;99.90
19206;DHT22;59358;52.134;5.596;2023-10-08T07:15:50;14.60;99.90
19206;DHT22;59358;52.134;5.596;2023-10-08T07:18:17;14.60;99.90
19206;DHT22;59358;52.134;5.596;2023-10-08T07:20:51;14.50;99.90
19206;DHT22;59358;52.134;5.596;2023-10-08T07:23:19;14.50;99.90
19206;DHT22;59358;52.134;5.596;2023-10-08T07:25:56;14.50;99.90
19206;DHT22;59358;52.134;5.596;2023-10-08T07:28:27;14.50;99.90
19206;DHT22;59358;52.134;5.596;2023-10-08T07:30:55;14.50;99.90
19206;DHT22;59358;52.134;5.596;2023-10-08T07:33:23;14.60;99.90
19206;DHT22;59358;52.134;5.596;2023-10-08T07:35:54;14.60;99.90
19206;DHT22;59358;52.134;5.596;2023-10-08T07:38:31;14.60;99.90
19206;DHT22;59358;52.134;5.596;2023-10-08T07:40:59;14.70;99.90
19206;DHT22;59358;52.134;5.596;2023-10-08T07:43:26;14.80;99.90
19206;DHT22;59358;52.134;5.596;2023-10-08T07:45:57;15.00;99.90
19206;DHT22;59358;52.134;5.596;2023-10-08T07:48:25;15.00;99.90
19206;DHT22;59358;52.134;5.596;2023-10-08T07:50:55;15.00;99.90
19206;DHT22;59358;52.134;5.596;2023-10-08T07:53:22;15.10;99.90
19206;DHT22;59358;52.134;5.596;2023-10-08T07:55:50;15.20;99.90
19206;DHT22;59358;52.134;5.596;2023-10-08T07:58:19;15.30;99.90
19206;DHT22;59358;52.134;5.596;2023-10-08T08:00:45;15.30;99.90
19206;DHT22;59358;52.134;5.596;2023-10-08T08:03:19;15.30;99.90
19206;DHT22;59358;52.134;5.596;2023-10-08T08:05:46;15.20;99.90
19206;DHT22;59358;52.134;5.596;2023-10-08T08:08:20;15.30;99.90
19206;DHT22;59358;52.134;5.596;2023-10-08T08:10:49;15.40;99.90
19206;DHT22;59358;52.134;5.596;2023-10-08T08:13:24;15.50;99.90
19206;DHT22;59358;52.134;5.596;2023-10-08T08:15:54;15.60;99.90
19206;DHT22;59358;52.134;5.596;2023-10-08T08:18:24;15.50;99.90
19206;DHT22;59358;52.134;5.596;2023-10-08T08:20:59;15.40;99.90
19206;DHT22;59358;52.134;5.596;2023-10-08T08:23:28;15.40;99.90
19206;DHT22;59358;52.134;5.596;2023-10-08T08:25:55;15.40;99.90
19206;DHT22;59358;52.134;5.596;2023-10-08T08:28:33;15.50;99.90
19206;DHT22;59358;52.134;5.596;2023-10-08T08:31:03;15.60;99.90
19206;DHT22;59358;52.134;5.596;2023-10-08T08:33:34;15.70;99.90
19206;DHT22;59358;52.134;5.596;2023-10-08T08:36:18;15.80;99.90
19206;DHT22;59358;52.134;5.596;2023-10-08T08:38:46;15.80;99.90
19206;DHT22;59358;52.134;5.596;2023-10-08T08:41:13;15.70;99.90
19206;DHT22;59358;52.134;5.596;2023-10-08T08:43:47;15.70;99.90
19206;DHT22;59358;52.134;5.596;2023-10-08T08:46:14;15.80;99.90
19206;DHT22;59358;52.134;5.596;2023-10-08T08:48:42;15.80;99.90
19206;DHT22;59358;52.134;5.596;2023-10-08T08:51:11;15.90;99.90
19206;DHT22;59358;52.134;5.596;2023-10-08T08:53:39;15.90;99.90
19206;DHT22;59358;52.134;5.596;2023-10-08T08:56:07;15.80;99.90
19206;DHT22;59358;52.134;5.596;2023-10-08T08:58:36;15.80;99.90
19206;DHT22;59358;52.134;5.596;2023-10-08T09:01:07;15.90;99.90
19206;DHT22;59358;52.134;5.596;2023-10-08T09:03:35;16.10;99.90
19206;DHT22;59358;52.134;5.596;2023-10-08T09:06:03;16.40;99.90
19206;DHT22;59358;52.134;5.596;2023-10-08T09:08:33;16.70;99.90
19206;DHT22;59358;52.134;5.596;2023-10-08T09:11:01;16.80;99.90
19206;DHT22;59358;52.134;5.596;2023-10-08T09:13:31;16.90;99.90
19206;DHT22;59358;52.134;5.596;2023-10-08T09:16:07;16.80;99.90
19206;DHT22;59358;52.134;5.596;2023-10-08T09:18:34;16.80;99.90
19206;DHT22;59358;52.134;5.596;2023-10-08T09:21:08;16.70;99.90
19206;DHT22;59358;52.134;5.596;2023-10-08T09:23:39;16.80;99.90
19206;DHT22;59358;52.134;5.596;2023-10-08T09:26:09;16.90;99.90
19206;DHT22;59358;52.134;5.596;2023-10-08T09:28:37;17.00;99.90
19206;DHT22;59358;52.134;5.596;2023-10-08T09:31:10;17.10;99.90
19206;DHT22;59358;52.134;5.596;2023-10-08T09:33:37;17.10;99.90
19206;DHT22;59358;52.134;5.596;2023-10-08T09:36:04;17.00;99.90
19206;DHT22;59358;52.134;5.596;2023-10-08T09:38:33;17.10;99.90
19206;DHT22;59358;52.134;5.596;2023-10-08T09:41:00;17.30;99.90
19206;DHT22;59358;52.134;5.596;2023-10-08T09:43:28;17.30;99.90
19206;DHT22;59358;52.134;5.596;2023-10-08T09:46:02;17.50;99.90
19206;DHT22;59358;52.134;5.596;2023-10-08T09:48:34;17.60;99.90
19206;DHT22;59358;52.134;5.596;2023-10-08T09:51:03;17.60;99.90
19206;DHT22;59358;52.134;5.596;2023-10-08T09:53:36;17.60;99.90
19206;DHT22;59358;52.134;5.596;2023-10-08T09:56:13;17.60;99.90
19206;DHT22;59358;52.134;5.596;2023-10-08T09:58:41;17.60;99.90
19206;DHT22;59358;52.134;5.596;2023-10-08T10:01:09;17.70;99.90
19206;DHT22;59358;52.134;5.596;2023-10-08T10:03:38;17.80;99.90
19206;DHT22;59358;52.134;5.596;2023-10-08T10:06:12;17.60;99.90
19206;DHT22;59358;52.134;5.596;2023-10-08T10:08:41;17.60;99.90
19206;DHT22;59358;52.134;5.596;2023-10-08T10:11:08;17.70;99.90
19206;DHT22;59358;52.134;5.596;2023-10-08T10:13:41;17.70;99.90
19206;DHT22;59358;52.134;5.596;2023-10-08T10:16:10;17.80;99.90
19206;DHT22;59358;52.134;5.596;2023-10-08T10:18:43;17.80;99.90
19206;DHT22;59358;52.134;5.596;2023-10-08T10:21:28;18.00;99.90
19206;DHT22;59358;52.134;5.596;2023-10-08T10:23:55;18.00;99.90
19206;DHT22;59358;52.134;5.596;2023-10-08T10:26:24;18.10;99.90
19206;DHT22;59358;52.134;5.596;2023-10-08T10:29:22;18.20;99.90
19206;DHT22;59358;52.134;5.596;2023-10-08T10:31:52;18.20;99.90
19206;DHT22;59358;52.134;5.596;2023-10-08T10:34:23;18.00;99.90
19206;DHT22;59358;52.134;5.596;2023-10-08T10:36:53;18.00;99.90
19206;DHT22;59358;52.134;5.596;2023-10-08T10:39:25;18.10;99.90
19206;DHT22;59358;52.134;5.596;2023-10-08T10:41:59;18.20;99.90
19206;DHT22;59358;52.134;5.596;2023-10-08T10:44:28;18.20;99.90
19206;DHT22;59358;52.134;5.596;2023-10-08T10:46:57;18.30;99.90
19206;DHT22;59358;52.134;5.596;2023-10-08T10:49:57;18.30;99.90
19206;DHT22;59358;52.134;5.596;2023-10-08T10:52:51;18.50;99.90
19206;DHT22;59358;52.134;5.596;2023-10-08T10:55:18;18.50;99.90
19206;DHT22;59358;52.134;5.596;2023-10-08T10:57:47;18.50;99.90
19206;DHT22;59358;52.134;5.596;2023-10-08T11:00:20;18.50;99.90
19206;DHT22;59358;52.134;5.596;2023-10-08T11:03:13;18.40;99.90
19206;DHT22;59358;52.134;5.596;2023-10-08T11:05:45;18.40;99.90
19206;DHT22;59358;52.134;5.596;2023-10-08T11:08:17;18.30;99.90
19206;DHT22;59358;52.134;5.596;2023-10-08T11:10:46;18.40;99.90
19206;DHT22;59358;52.134;5.596;2023-10-08T11:13:16;18.70;99.90
19206;DHT22;59358;52.134;5.596;2023-10-08T11:15:44;18.70;99.90
19206;DHT22;59358;52.134;5.596;2023-10-08T11:18:15;18.80;99.90
19206;DHT22;59358;52.134;5.596;2023-10-08T11:20:45;19.00;99.90
19206;DHT22;59358;52.134;5.596;2023-10-08T11:25:55;19.10;99.90
19206;DHT22;59358;52.134;5.596;2023-10-08T11:28:26;19.10;99.90
19206;DHT22;59358;52.134;5.596;2023-10-08T11:30:53;19.00;99.90
19206;DHT22;59358;52.134;5.596;2023-10-08T11:33:20;18.90;99.90
19206;DHT22;59358;52.134;5.596;2023-10-08T11:35:58;18.90;99.90
19206;DHT22;59358;52.134;5.596;2023-10-08T11:38:27;18.70;99.90
19206;DHT22;59358;52.134;5.596;2023-10-08T11:41:10;18.50;99.90
19206;DHT22;59358;52.134;5.596;2023-10-08T11:43:39;18.10;99.90
19206;DHT22;59358;52.134;5.596;2023-10-08T11:46:06;18.00;99.90
19206;DHT22;59358;52.134;5.596;2023-10-08T11:48:32;18.10;99.90
19206;DHT22;59358;52.134;5.596;2023-10-08T11:51:05;18.20;99.90
19206;DHT22;59358;52.134;5.596;2023-10-08T11:53:37;18.40;99.90
19206;DHT22;59358;52.134;5.596;2023-10-08T11:56:04;18.50;99.90
19206;DHT22;59358;52.134;5.596;2023-10-08T11:58:39;18.50;99.90
19206;DHT22;59358;52.134;5.596;2023-10-08T12:01:06;18.50;99.90
19206;DHT22;59358;52.134;5.596;2023-10-08T12:03:36;18.60;99.90
19206;DHT22;59358;52.134;5.596;2023-10-08T12:06:05;18.70;99.90
19206;DHT22;59358;52.134;5.596;2023-10-08T12:08:33;18.70;99.90
19206;DHT22;59358;52.134;5.596;2023-10-08T12:11:04;18.60;99.90
19206;DHT22;59358;52.134;5.596;2023-10-08T12:13:37;18.70;99.90
19206;DHT22;59358;52.134;5.596;2023-10-08T12:16:04;18.80;99.90
19206;DHT22;59358;52.134;5.596;2023-10-08T12:18:38;18.80;99.90
19206;DHT22;59358;52.134;5.596;2023-10-08T12:21:07;19.00;99.90
19206;DHT22;59358;52.134;5.596;2023-10-08T12:23:36;19.00;99.90
19206;DHT22;59358;52.134;5.596;2023-10-08T12:26:03;18.90;99.90
19206;DHT22;59358;52.134;5.596;2023-10-08T12:28:33;19.10;99.90
19206;DHT22;59358;52.134;5.596;2023-10-08T12:31:01;19.10;99.90
19206;DHT22;59358;52.134;5.596;2023-10-08T12:33:29;19.00;99.90
19206;DHT22;59358;52.134;5.596;2023-10-08T12:35:57;18.90;99.90
19206;DHT22;59358;52.134;5.596;2023-10-08T12:38:37;18.60;99.90
19206;DHT22;59358;52.134;5.596;2023-10-08T12:41:04;18.50;99.90
19206;DHT22;59358;52.134;5.596;2023-10-08T12:43:37;18.50;99.90
19206;DHT22;59358;52.134;5.596;2023-10-08T12:46:05;18.50;99.90
19206;DHT22;59358;52.134;5.596;2023-10-08T12:48:37;18.50;99.90
19206;DHT22;59358;52.134;5.596;2023-10-08T12:51:04;18.80;99.90
19206;DHT22;59358;52.134;5.596;2023-10-08T12:53:32;18.90;99.90
19206;DHT22;59358;52.134;5.596;2023-10-08T12:56:04;18.80;99.90
19206;DHT22;59358;52.134;5.596;2023-10-08T12:58:33;18.70;99.90
19206;DHT22;59358;52.134;5.596;2023-10-08T13:01:06;18.70;99.90
19206;DHT22;59358;52.134;5.596;2023-10-08T13:03:35;18.90;99.90
19206;DHT22;59358;52.134;5.596;2023-10-08T13:06:07;19.00;99.90
19206;DHT22;59358;52.134;5.596;2023-10-08T13:08:37;19.00;99.90
19206;DHT22;59358;52.134;5.596;2023-10-08T13:11:05;18.80;99.90
19206;DHT22;59358;52.134;5.596;2023-10-08T13:13:32;18.70;99.90
19206;DHT22;59358;52.134;5.596;2023-10-08T13:16:00;18.50;99.90
19206;DHT22;59358;52.134;5.596;2023-10-08T13:18:32;18.50;99.90
19206;DHT22;59358;52.134;5.596;2023-10-08T13:20:59;18.50;99.90
19206;DHT22;59358;52.134;5.596;2023-10-08T13:23:26;18.40;99.90
19206;DHT22;59358;52.134;5.596;2023-10-08T13:25:57;18.30;99.90
19206;DHT22;59358;52.134;5.596;2023-10-08T13:28:31;18.30;99.90
19206;DHT22;59358;52.134;5.596;2023-10-08T13:30:59;18.30;99.90
19206;DHT22;59358;52.134;5.596;2023-10-08T13:33:26;18.30;99.90
19206;DHT22;59358;52.134;5.596;2023-10-08T13:35:54;18.30;99.90
19206;DHT22;59358;52.134;5.596;2023-10-08T13:38:21;18.30;99.90
19206;DHT22;59358;52.134;5.596;2023-10-08T13:40:48;18.30;99.90
19206;DHT22;59358;52.134;5.596;2023-10-08T13:43:31;18.30;99.90
19206;DHT22;59358;52.134;5.596;2023-10-08T13:46:02;18.30;99.90
19206;DHT22;59358;52.134;5.596;2023-10-08T13:48:30;18.20;99.90
19206;DHT22;59358;52.134;5.596;2023-10-08T13:51:02;18.10;99.90
19206;DHT22;59358;52.134;5.596;2023-10-08T13:53:30;18.10;99.90
19206;DHT22;59358;52.134;5.596;2023-10-08T13:55:58;18.00;99.90
19206;DHT22;59358;52.134;5.596;2023-10-08T13:58:26;18.10;99.90
19206;DHT22;59358;52.134;5.596;2023-10-08T14:00:57;18.10;99.90
19206;DHT22;59358;52.134;5.596;2023-10-08T14:03:26;18.10;99.90
19206;DHT22;59358;52.134;5.596;2023-10-08T14:05:54;18.20;99.90
19206;DHT22;59358;52.134;5.596;2023-10-08T14:08:24;18.10;99.90
19206;DHT22;59358;52.134;5.596;2023-10-08T14:10:54;18.10;99.90
19206;DHT22;59358;52.134;5.596;2023-10-08T14:13:25;17.90;99.90
19206;DHT22;59358;52.134;5.596;2023-10-08T14:15:53;17.90;99.90
19206;DHT22;59358;52.134;5.596;2023-10-08T14:18:23;17.90;99.90
19206;DHT22;59358;52.134;5.596;2023-10-08T14:20:54;17.80;99.90
19206;DHT22;59358;52.134;5.596;2023-10-08T14:23:21;17.80;99.90
19206;DHT22;59358;52.134;5.596;2023-10-08T14:25:51;17.80;99.90
19206;DHT22;59358;52.134;5.596;2023-10-08T14:28:21;17.80;99.90
19206;DHT22;59358;52.134;5.596;2023-10-08T14:31:06;17.80;99.90
19206;DHT22;59358;52.134;5.596;2023-10-08T14:33:35;17.70;99.90
19206;DHT22;59358;52.134;5.596;2023-10-08T14:36:08;17.70;99.90
19206;DHT22;59358;52.134;5.596;2023-10-08T14:38:52;17.70;99.90
19206;DHT22;59358;52.134;5.596;2023-10-08T14:41:36;17.70;99.90
19206;DHT22;59358;52.134;5.596;2023-10-08T14:44:20;17.70;99.90
19206;DHT22;59358;52.134;5.596;2023-10-08T14:46:48;17.60;99.90
19206;DHT22;59358;52.134;5.596;2023-10-08T14:49:17;17.60;99.90
19206;DHT22;59358;52.134;5.596;2023-10-08T14:51:44;17.60;99.90
19206;DHT22;59358;52.134;5.596;2023-10-08T14:54:14;17.70;99.90
19206;DHT22;59358;52.134;5.596;2023-10-08T14:56:41;17.70;99.90
19206;DHT22;59358;52.134;5.596;2023-10-08T14:59:08;17.70;99.90
19206;DHT22;59358;52.134;5.596;2023-10-08T15:01:35;17.70;99.90
19206;DHT22;59358;52.134;5.596;2023-10-08T15:04:02;17.60;99.90
19206;DHT22;59358;52.134;5.596;2023-10-08T15:06:32;17.70;99.90
19206;DHT22;59358;52.134;5.596;2023-10-08T15:08:59;17.80;99.90
19206;DHT22;59358;52.134;5.596;2023-10-08T15:11:26;17.80;99.90
19206;DHT22;59358;52.134;5.596;2023-10-08T15:13:56;17.70;99.90
19206;DHT22;59358;52.134;5.596;2023-10-08T15:16:23;17.60;99.90
19206;DHT22;59358;52.134;5.596;2023-10-08T15:18:52;17.50;99.90
19206;DHT22;59358;52.134;5.596;2023-10-08T15:21:18;17.40;99.90
19206;DHT22;59358;52.134;5.596;2023-10-08T15:23:48;17.30;99.90
19206;DHT22;59358;52.134;5.596;2023-10-08T15:26:14;17.30;99.90
19206;DHT22;59358;52.134;5.596;2023-10-08T15:28:42;17.40;99.90
19206;DHT22;59358;52.134;5.596;2023-10-08T15:31:09;17.40;99.90
19206;DHT22;59358;52.134;5.596;2023-10-08T15:33:36;17.50;99.90
19206;DHT22;59358;52.134;5.596;2023-10-08T15:36:04;17.50;99.90
19206;DHT22;59358;52.134;5.596;2023-10-08T15:38:30;17.40;99.90
19206;DHT22;59358;52.134;5.596;2023-10-08T15:40:59;17.40;99.90
19206;DHT22;59358;52.134;5.596;2023-10-08T15:43:26;17.30;99.90
19206;DHT22;59358;52.134;5.596;2023-10-08T15:45:53;17.20;99.90
19206;DHT22;59358;52.134;5.596;2023-10-08T15:48:20;17.10;99.90
19206;DHT22;59358;52.134;5.596;2023-10-08T15:50:46;17.10;99.90
19206;DHT22;59358;52.134;5.596;2023-10-08T15:53:13;17.10;99.90
19206;DHT22;59358;52.134;5.596;2023-10-08T15:55:41;17.00;99.90
19206;DHT22;59358;52.134;5.596;2023-10-08T15:58:09;17.10;99.90